Virginia — WCX6646 — position and weather

sailwx.info

Track history (hours):
 
Tides and Currents Weather Stations Pressure Air Temp Water Temp Dewpoint Dewpoint Depression Visibility Wind Speed Wind Dir Waves Ship Positions

Virginia

Owner: W F MAGANN CORPORATION, PORTSMOUTH, VA. More information available from US FCC via Universal Licensing System and Coast Guard Vessel Documentation Center.

Last reported at 2017-Oct-31 19:17 UTC. Time now 2017-Dec-12 06:16 UTC.
Position N 36°51' W 076°21'.
Warning: this ship's position is 41 days out of date.

Length 17 m.

Type: Tug. MMSI: 367304270.

Date/timePositionNaut miles runAvg speedWind from/ knotsBaromVisibWave heightAir tempDewpointWater temp
2017-Oct-31 19:17N 36°51' W 076°21'1 0.3
2017-Oct-31 14:31N 36°52' W 076°20'0 7.8
2017-Oct-31 14:30N 36°52' W 076°20'3 6.7
2017-Oct-31 14:00N 36°49' W 076°17'3 5.7
2017-Oct-31 13:30N 36°47' W 076°18'1 1.9
2017-Oct-31 12:58N 36°46' W 076°18'0 0.0
2017-Oct-31 12:28N 36°46' W 076°18'0 0.0
2017-Oct-30 17:35N 36°46' W 076°18'0 0.1
2017-Oct-30 17:29N 36°46' W 076°18'2 4.6
2017-Oct-30 17:00N 36°48' W 076°17'4 6.4
2017-Oct-30 16:25N 36°52' W 076°19'  
2017-Oct-27 19:12N 36°51' W 076°21'0 0.5
2017-Oct-27 18:59N 36°51' W 076°21'0 0.2
2017-Oct-27 18:28N 36°51' W 076°21'0 0.0
2017-Oct-27 17:58N 36°51' W 076°21'0 0.1
2017-Oct-27 17:29N 36°51' W 076°21'0 0.1
2017-Oct-27 16:41N 36°52' W 076°21'0 0.2
2017-Oct-27 16:28N 36°51' W 076°21'0 0.0
2017-Oct-27 15:58N 36°51' W 076°21'0 0.0
2017-Oct-27 15:28N 36°51' W 076°21'0 0.0
2017-Oct-27 14:58N 36°51' W 076°21'0 0.2
2017-Oct-27 14:30N 36°51' W 076°21'1 1.2
2017-Oct-27 13:56N 36°52' W 076°20'2 1.0
2017-Oct-27 11:44N 36°54' W 076°20'1 1.6
2017-Oct-27 11:19N 36°53' W 076°20'2 0.1
2017-Oct-26 18:29N 36°51' W 076°21'0 0.1
2017-Oct-26 17:58N 36°52' W 076°21'0 0.2
2017-Oct-26 17:29N 36°51' W 076°21'1 1.2
2017-Oct-26 16:56N 36°52' W 076°20'2 5.0
2017-Oct-26 16:30N 36°51' W 076°18'2 3.2
2017-Oct-26 15:58N 36°49' W 076°18'0 0.0
2017-Oct-26 15:28N 36°49' W 076°18'0 0.0
2017-Oct-26 14:58N 36°49' W 076°18'0 0.0
2017-Oct-26 14:26N 36°49' W 076°18'3 4.8
2017-Oct-26 13:51N 36°52' W 076°19'1 4.3
2017-Oct-26 13:30N 36°51' W 076°21'3 0.1
2017-Oct-25 13:24N 36°50' W 076°17'2 2.1
2017-Oct-25 12:29N 36°49' W 076°17'  
Track history (hours):
 
Tides and Currents Weather Stations Pressure Air Temp Water Temp Dewpoint Dewpoint Depression Visibility Wind Speed Wind Dir Waves Ship Positions

Virginia

Owner: W F MAGANN CORPORATION, PORTSMOUTH, VA. More information available from US FCC via Universal Licensing System and Coast Guard Vessel Documentation Center.

Last reported at 2017-Oct-31 19:17 UTC. Time now 2017-Dec-12 06:16 UTC.
Position N 36°51' W 076°21'.
Warning: this ship's position is 41 days out of date.

Length 17 m.

Type: Tug. MMSI: 367304270.

Date/timePositionNaut miles runAvg speedWind from/ knotsBaromVisibWave heightAir tempDewpointWater temp
2017-Oct-31 19:17N 36°51' W 076°21'1 0.3
2017-Oct-31 14:31N 36°52' W 076°20'0 7.8
2017-Oct-31 14:30N 36°52' W 076°20'3 6.7
2017-Oct-31 14:00N 36°49' W 076°17'3 5.7
2017-Oct-31 13:30N 36°47' W 076°18'1 1.9
2017-Oct-31 12:58N 36°46' W 076°18'0 0.0
2017-Oct-31 12:28N 36°46' W 076°18'0 0.0
2017-Oct-30 17:35N 36°46' W 076°18'0 0.1
2017-Oct-30 17:29N 36°46' W 076°18'2 4.6
2017-Oct-30 17:00N 36°48' W 076°17'4 6.4
2017-Oct-30 16:25N 36°52' W 076°19'  
2017-Oct-27 19:12N 36°51' W 076°21'0 0.5
2017-Oct-27 18:59N 36°51' W 076°21'0 0.2
2017-Oct-27 18:28N 36°51' W 076°21'0 0.0
2017-Oct-27 17:58N 36°51' W 076°21'0 0.1
2017-Oct-27 17:29N 36°51' W 076°21'0 0.1
2017-Oct-27 16:41N 36°52' W 076°21'0 0.2
2017-Oct-27 16:28N 36°51' W 076°21'0 0.0
2017-Oct-27 15:58N 36°51' W 076°21'0 0.0
2017-Oct-27 15:28N 36°51' W 076°21'0 0.0
2017-Oct-27 14:58N 36°51' W 076°21'0 0.2
2017-Oct-27 14:30N 36°51' W 076°21'1 1.2
2017-Oct-27 13:56N 36°52' W 076°20'2 1.0
2017-Oct-27 11:44N 36°54' W 076°20'1 1.6
2017-Oct-27 11:19N 36°53' W 076°20'2 0.1
2017-Oct-26 18:29N 36°51' W 076°21'0 0.1
2017-Oct-26 17:58N 36°52' W 076°21'0 0.2
2017-Oct-26 17:29N 36°51' W 076°21'1 1.2
2017-Oct-26 16:56N 36°52' W 076°20'2 5.0
2017-Oct-26 16:30N 36°51' W 076°18'2 3.2
2017-Oct-26 15:58N 36°49' W 076°18'0 0.0
2017-Oct-26 15:28N 36°49' W 076°18'0 0.0
2017-Oct-26 14:58N 36°49' W 076°18'0 0.0
2017-Oct-26 14:26N 36°49' W 076°18'3 4.8
2017-Oct-26 13:51N 36°52' W 076°19'1 4.3
2017-Oct-26 13:30N 36°51' W 076°21'3 0.1
2017-Oct-25 13:24N 36°50' W 076°17'2 2.1
2017-Oct-25 12:29N 36°49' W 076°17'  

Dump ship's entire track history